Aurora, Kansas
Current Conditions -  °F | °C
As of 7:55 PM on Thursday 20 Nov 2014 (Local Time) from KCNK Reporting Station
Clear Clear  
Wind Chill: 23°   Ceiling: Unl
Heat Index: 29°   Visibility: 10mi
Dew Point: 19°   Wind: 6mph
Humidity: 67%   Direction: 110°ESE
Pressure: 30.16"   Gusts: NA
Location:  39.45°N, 97.53°W
Report Text: KCNK 210155Z AUTO 11005KT 10SM CLR M02/M07 A3016 RMK AO2 SLP231 T10171072
Loading
Personal Weather Stations






























Interactive Weather Map New forecast layout! Learn more

10-Day Weather Forecast

Advertisements
Track Severe Weather on mobile